Time;durP1;ratioP1;P1;durP2;ratioP2;P2;SDS_P1;SDS_P2;PMS_P1;PMS_P2;Temp;Humidity;BMP_temperature;BMP_pressure;BME280_temperature;BME280_humidity;BME280_pressure;Samples;Min_cycle;Max_cycle;Signal;HPM_P1;HPM_P2
2021/06/07 00:01:10;;;;;;;25.55;22.90;;;18.20;99.90;;;;;;4942525;29;20054;-77
2021/06/07 00:03:36;;;;;;;25.73;23.13;;;18.20;99.90;;;;;;4948785;29;20154;-78
2021/06/07 00:06:04;;;;;;;25.80;23.17;;;18.20;99.90;;;;;;4948580;29;20476;-77
2021/06/07 00:08:32;;;;;;;25.55;22.95;;;18.20;99.90;;;;;;4938267;29;20436;-79
2021/06/07 00:10:59;;;;;;;25.33;22.63;;;18.20;99.90;;;;;;4953184;29;20504;-79
2021/06/07 00:13:26;;;;;;;26.90;23.10;;;18.10;99.90;;;;;;4955501;29;20115;-78
2021/06/07 00:15:53;;;;;;;28.30;23.23;;;18.10;99.90;;;;;;4954714;29;20047;-78
2021/06/07 00:18:20;;;;;;;26.55;23.77;;;18.00;99.90;;;;;;4954500;28;20047;-77
2021/06/07 00:20:50;;;;;;;25.85;23.15;;;18.10;99.90;;;;;;4954499;29;20071;-78
2021/06/07 00:23:17;;;;;;;27.80;25.08;;;18.00;99.90;;;;;;4956114;29;20071;-81
2021/06/07 00:25:46;;;;;;;27.13;24.35;;;18.00;99.90;;;;;;4955579;29;20097;-78
2021/06/07 00:28:13;;;;;;;27.58;24.85;;;18.00;99.90;;;;;;4945766;29;20082;-78
2021/06/07 00:30:40;;;;;;;28.00;25.00;;;17.90;99.90;;;;;;4948027;29;20070;-78
2021/06/07 00:33:06;;;;;;;27.80;25.10;;;17.90;99.90;;;;;;4948931;29;20055;-77
2021/06/07 00:35:33;;;;;;;29.27;25.85;;;17.90;99.90;;;;;;4941249;29;20124;-78
2021/06/07 00:37:59;;;;;;;30.83;26.50;;;17.90;99.90;;;;;;4936432;29;20051;-78
2021/06/07 00:40:27;;;;;;;28.85;25.73;;;17.90;99.90;;;;;;4936889;29;20047;-78
2021/06/07 00:42:55;;;;;;;29.92;26.83;;;17.90;99.90;;;;;;4935827;29;20086;-77
2021/06/07 00:45:24;;;;;;;32.72;25.98;;;17.80;99.90;;;;;;4935551;29;20052;-79
2021/06/07 00:47:52;;;;;;;28.55;25.67;;;17.80;99.90;;;;;;4935438;29;20146;-78
2021/06/07 00:50:25;;;;;;;31.25;27.85;;;17.80;99.90;;;;;;4935932;29;20430;-78
2021/06/07 00:53:02;;;;;;;30.50;26.77;;;17.80;99.90;;;;;;4936019;29;20138;-77
2021/06/07 00:55:31;;;;;;;30.73;27.50;;;17.80;99.90;;;;;;4936002;29;20051;-79
2021/06/07 00:58:00;;;;;;;29.70;26.05;;;17.80;99.90;;;;;;4935307;29;20138;-77
2021/06/07 01:00:27;;;;;;;29.88;26.52;;;17.90;99.90;;;;;;4934620;29;20048;-77
2021/06/07 01:02:55;;;;;;;29.85;26.65;;;17.90;99.90;;;;;;4934984;29;20107;-78
2021/06/07 01:05:21;;;;;;;34.25;28.77;;;17.80;99.90;;;;;;4934833;29;20142;-78
2021/06/07 01:07:48;;;;;;;30.88;27.52;;;17.80;99.90;;;;;;4934688;29;20587;-78
2021/06/07 01:10:15;;;;;;;31.20;27.90;;;17.80;99.90;;;;;;4934760;29;20048;-78
2021/06/07 01:12:42;;;;;;;33.35;28.15;;;17.80;99.90;;;;;;4935052;29;20560;-78
2021/06/07 01:15:12;;;;;;;31.45;28.35;;;17.70;99.90;;;;;;4934709;29;20487;-78
2021/06/07 01:17:39;;;;;;;32.10;28.75;;;17.60;99.90;;;;;;4935258;29;20134;-77
2021/06/07 01:20:08;;;;;;;32.60;29.10;;;17.60;99.90;;;;;;4935341;29;20102;-81
2021/06/07 01:22:36;;;;;;;33.20;29.73;;;17.60;99.90;;;;;;4935208;29;20130;-79
2021/06/07 01:25:06;;;;;;;33.30;29.67;;;17.50;99.90;;;;;;4935094;29;20138;-78
2021/06/07 01:27:33;;;;;;;34.13;30.38;;;17.50;99.90;;;;;;4934753;29;20140;-78
2021/06/07 01:30:01;;;;;;;35.10;31.40;;;17.40;99.90;;;;;;4934902;29;20151;-79
2021/06/07 01:32:28;;;;;;;36.20;32.35;;;17.40;99.90;;;;;;4934596;29;20056;-81
2021/06/07 01:34:54;;;;;;;36.95;33.05;;;17.30;99.90;;;;;;4934543;29;20061;-78
2021/06/07 01:37:20;;;;;;;35.55;31.80;;;17.30;99.90;;;;;;4934281;29;20251;-78
2021/06/07 01:39:48;;;;;;;39.47;33.85;;;17.30;99.90;;;;;;4934498;29;20138;-77
2021/06/07 01:42:14;;;;;;;39.30;33.17;;;17.20;99.90;;;;;;4934311;29;20056;-77
2021/06/07 01:44:41;;;;;;;41.53;34.17;;;17.20;99.90;;;;;;4934517;29;20547;-77
2021/06/07 01:47:07;;;;;;;38.90;34.13;;;17.10;99.90;;;;;;4934536;29;20055;-77
2021/06/07 01:49:34;;;;;;;37.63;33.63;;;17.10;99.90;;;;;;4934757;29;20133;-76
2021/06/07 01:52:00;;;;;;;38.40;34.40;;;17.00;99.90;;;;;;4935075;29;20513;-77
2021/06/07 01:54:26;;;;;;;43.65;34.85;;;17.10;99.90;;;;;;4934421;29;20249;-77
2021/06/07 01:56:54;;;;;;;37.30;33.30;;;17.10;99.90;;;;;;4933936;29;20186;-79
2021/06/07 01:59:20;;;;;;;36.75;32.78;;;17.10;99.90;;;;;;4934567;29;20531;-78
2021/06/07 02:01:47;;;;;;;39.83;33.85;;;17.20;99.90;;;;;;4934575;29;20044;-78
2021/06/07 02:04:13;;;;;;;37.90;33.80;;;17.20;99.90;;;;;;4934218;29;20087;-79
2021/06/07 02:09:28;;;;;;;39.97;33.30;;;17.20;99.90;;;;;;4973839;28;20050;-77
2021/06/07 02:11:56;;;;;;;36.78;32.40;;;17.20;99.90;;;;;;4976389;28;20071;-78
2021/06/07 02:14:23;;;;;;;38.47;32.97;;;17.30;99.90;;;;;;4980494;28;20051;-79
2021/06/07 02:16:49;;;;;;;41.53;33.88;;;17.20;99.90;;;;;;4980383;28;20047;-79
2021/06/07 02:19:16;;;;;;;41.33;32.92;;;17.20;99.90;;;;;;4972299;29;20138;-79
2021/06/07 02:21:42;;;;;;;36.00;32.00;;;17.30;99.90;;;;;;4969575;29;20050;-79
2021/06/07 02:24:10;;;;;;;39.28;32.67;;;17.30;99.90;;;;;;4969676;29;20082;-81
2021/06/07 02:26:38;;;;;;;37.03;32.83;;;17.30;99.90;;;;;;4969871;29;20055;-81
2021/06/07 02:29:08;;;;;;;37.53;32.13;;;17.30;99.90;;;;;;4970298;29;20083;-81
2021/06/07 02:31:36;;;;;;;41.63;33.80;;;17.30;99.90;;;;;;4970871;29;20078;-80
2021/06/07 02:34:06;;;;;;;38.33;31.80;;;17.30;99.90;;;;;;4969719;29;20083;-81
2021/06/07 02:36:35;;;;;;;36.08;30.27;;;17.30;99.90;;;;;;4970694;29;20082;-81
2021/06/07 02:39:04;;;;;;;37.08;31.58;;;17.30;99.90;;;;;;4971306;29;20106;-81
2021/06/07 02:41:30;;;;;;;36.95;30.25;;;17.30;99.90;;;;;;4968216;29;20059;-80
2021/06/07 02:43:57;;;;;;;34.25;30.35;;;17.30;99.90;;;;;;4965533;29;20059;-80
2021/06/07 02:46:24;;;;;;;36.65;29.67;;;17.20;99.90;;;;;;4973036;29;20065;-80
2021/06/07 02:48:51;;;;;;;34.67;30.40;;;17.20;99.90;;;;;;4978175;29;20075;-80
2021/06/07 02:51:18;;;;;;;35.03;31.23;;;17.10;99.90;;;;;;4978276;29;20051;-80
2021/06/07 02:53:46;;;;;;;34.58;30.17;;;17.20;99.90;;;;;;4976299;29;20535;-80
2021/06/07 02:56:13;;;;;;;37.00;31.05;;;17.20;99.90;;;;;;4964433;29;20051;-79
2021/06/07 02:58:39;;;;;;;35.05;30.45;;;17.10;99.90;;;;;;4968005;29;20099;-80
2021/06/07 03:01:07;;;;;;;36.35;29.77;;;17.00;99.90;;;;;;4966531;29;20059;-80
2021/06/07 03:03:36;;;;;;;35.08;30.42;;;17.00;99.90;;;;;;4967086;29;20186;-79
2021/06/07 03:06:02;;;;;;;36.50;30.92;;;17.00;99.90;;;;;;4967018;29;20514;-79
2021/06/07 03:08:30;;;;;;;36.80;31.92;;;16.90;99.90;;;;;;4967294;29;20086;-80
2021/06/07 03:10:59;;;;;;;36.15;30.88;;;16.90;99.90;;;;;;4967307;29;20087;-79
2021/06/07 03:13:26;;;;;;;39.28;31.50;;;16.80;99.90;;;;;;4966923;28;20058;-78
2021/06/07 03:15:56;;;;;;;38.25;30.70;;;16.80;99.90;;;;;;4968502;29;20086;-80
2021/06/07 03:18:22;;;;;;;34.97;30.65;;;16.80;99.90;;;;;;4968793;28;20063;-80
2021/06/07 03:20:51;;;;;;;36.17;31.33;;;16.80;99.90;;;;;;4969451;28;20233;-80
2021/06/07 03:23:19;;;;;;;37.25;32.38;;;16.80;99.90;;;;;;4968992;28;20062;-80
2021/06/07 03:25:48;;;;;;;39.17;31.65;;;16.70;99.90;;;;;;4969277;29;20075;-79
2021/06/07 03:28:17;;;;;;;37.47;30.60;;;16.70;99.90;;;;;;4967684;29;20058;-79
2021/06/07 03:30:45;;;;;;;33.60;29.63;;;16.80;99.90;;;;;;4968037;29;20051;-79
2021/06/07 03:33:12;;;;;;;37.92;32.35;;;16.80;99.90;;;;;;4967478;29;20055;-79
2021/06/07 03:35:41;;;;;;;41.72;31.92;;;16.80;99.90;;;;;;4966614;29;20059;-79
2021/06/07 03:38:10;;;;;;;40.45;33.38;;;16.70;99.90;;;;;;4965631;29;20079;-79
2021/06/07 03:40:38;;;;;;;38.90;31.13;;;16.70;99.90;;;;;;4966972;29;20058;-79
2021/06/07 03:43:05;;;;;;;36.40;31.83;;;16.70;99.90;;;;;;4967989;29;20212;-79
2021/06/07 03:45:32;;;;;;;42.17;33.65;;;16.70;99.90;;;;;;4968282;28;20113;-79
2021/06/07 03:47:58;;;;;;;39.03;33.03;;;16.70;99.90;;;;;;4967521;29;20087;-80
2021/06/07 03:50:27;;;;;;;40.17;34.35;;;16.70;99.90;;;;;;4967233;29;20048;-79
2021/06/07 03:52:54;;;;;;;40.50;34.13;;;16.60;99.90;;;;;;4967162;29;20075;-78
2021/06/07 03:55:24;;;;;;;39.03;33.55;;;16.60;99.90;;;;;;4967369;28;20055;-80
2021/06/07 03:57:51;;;;;;;41.35;34.42;;;16.60;99.90;;;;;;4966954;28;20095;-79
2021/06/07 04:00:20;;;;;;;39.22;34.17;;;16.60;99.90;;;;;;4966123;29;20043;-79
2021/06/07 04:02:47;;;;;;;39.58;32.53;;;16.70;99.90;;;;;;4966744;29;20079;-79
2021/06/07 04:05:15;;;;;;;39.20;32.22;;;16.80;99.90;;;;;;4965768;29;20059;-79
2021/06/07 04:07:42;;;;;;;39.28;31.30;;;17.00;99.90;;;;;;4967517;29;20477;-81
2021/06/07 04:10:11;;;;;;;34.65;28.25;;;17.40;99.90;;;;;;4969239;29;20058;-79
2021/06/07 04:12:39;;;;;;;36.58;29.08;;;17.60;99.90;;;;;;4966527;29;20048;-80
2021/06/07 04:15:25;;;;;;;35.53;29.55;;;18.10;99.90;;;;;;4967006;29;20078;-81
2021/06/07 04:17:58;;;;;;;36.35;28.75;;;18.40;99.90;;;;;;4965873;29;20451;-81
2021/06/07 04:20:39;;;;;;;34.67;28.52;;;18.80;99.90;;;;;;4965504;29;20147;-79
2021/06/07 04:26:26;;;;;;;37.55;29.73;;;18.90;99.90;;;;;;4965692;28;20047;-81
2021/06/07 04:28:54;;;;;;;33.95;27.63;;;19.00;99.90;;;;;;4968414;29;20063;-81
2021/06/07 04:31:20;;;;;;;31.10;26.58;;;19.30;99.90;;;;;;4969725;29;20071;-81
2021/06/07 04:33:47;;;;;;;30.58;26.33;;;19.50;99.90;;;;;;4969195;29;20048;-81
2021/06/07 04:36:13;;;;;;;35.83;27.00;;;19.50;99.90;;;;;;4967512;28;20075;-80
2021/06/07 04:38:40;;;;;;;31.92;26.00;;;19.60;99.90;;;;;;4969288;29;20059;-79
2021/06/07 04:41:06;;;;;;;32.30;26.48;;;19.50;99.90;;;;;;4968335;29;20047;-80
2021/06/07 04:43:32;;;;;;;29.23;26.08;;;19.50;99.90;;;;;;4966821;29;20075;-79
2021/06/07 04:46:00;;;;;;;30.27;26.38;;;19.30;99.90;;;;;;4967083;29;20055;-79
2021/06/07 04:48:30;;;;;;;30.35;24.75;;;19.20;99.90;;;;;;4967696;29;20082;-79
2021/06/07 04:50:56;;;;;;;28.17;24.67;;;19.40;99.90;;;;;;4967395;29;20051;-80
2021/06/07 04:53:23;;;;;;;27.95;24.88;;;19.40;99.90;;;;;;4966962;28;20089;-82
2021/06/07 04:55:51;;;;;;;32.63;24.58;;;19.30;99.90;;;;;;4968557;29;20083;-79
2021/06/07 04:58:19;;;;;;;28.42;25.15;;;19.20;99.90;;;;;;4966246;29;20436;-80
2021/06/07 05:00:50;;;;;;;29.25;24.77;;;19.10;99.90;;;;;;4967218;28;20057;-80
2021/06/07 05:03:18;;;;;;;28.48;23.60;;;19.10;99.90;;;;;;4966150;29;20484;-80
2021/06/07 05:05:45;;;;;;;37.50;26.10;;;19.10;99.90;;;;;;4964562;29;20079;-79
2021/06/07 05:08:12;;;;;;;35.22;26.90;;;18.90;99.90;;;;;;4964827;29;20058;-79
2021/06/07 05:10:39;;;;;;;34.78;27.33;;;18.80;99.90;;;;;;4964551;29;20066;-79
2021/06/07 05:13:05;;;;;;;32.55;27.38;;;18.70;99.90;;;;;;4963581;29;20070;-80
2021/06/07 05:15:32;;;;;;;37.92;29.50;;;18.50;99.90;;;;;;4964477;29;20484;-79
2021/06/07 05:17:58;;;;;;;36.15;30.00;;;18.30;99.90;;;;;;4964189;29;20492;-79
2021/06/07 05:20:27;;;;;;;38.55;29.08;;;18.20;99.90;;;;;;4962875;29;20047;-79
2021/06/07 05:22:54;;;;;;;36.45;28.88;;;18.00;99.90;;;;;;4962259;29;20206;-79
2021/06/07 05:25:22;;;;;;;32.88;28.48;;;18.10;99.90;;;;;;4962432;29;20077;-80
2021/06/07 05:27:49;;;;;;;31.58;27.33;;;18.30;99.90;;;;;;4961698;29;20132;-79
2021/06/07 05:30:18;;;;;;;30.00;26.50;;;18.40;99.90;;;;;;4962798;29;20445;-80
2021/06/07 05:32:44;;;;;;;32.63;27.85;;;18.40;99.90;;;;;;4962651;29;20094;-79
2021/06/07 05:35:13;;;;;;;32.13;27.20;;;18.50;99.90;;;;;;4962267;29;20055;-78
2021/06/07 05:37:41;;;;;;;36.15;29.08;;;18.60;99.90;;;;;;4962088;29;20055;-79
2021/06/07 05:40:09;;;;;;;35.88;30.38;;;18.60;99.90;;;;;;4960780;29;20090;-79
2021/06/07 05:42:36;;;;;;;40.35;31.77;;;18.50;99.90;;;;;;4961742;29;20138;-79
2021/06/07 05:45:05;;;;;;;39.70;31.00;;;18.50;99.90;;;;;;4961279;28;20056;-79
2021/06/07 05:47:32;;;;;;;39.67;32.72;;;18.60;99.90;;;;;;4965379;28;20051;-80
2021/06/07 05:49:58;;;;;;;38.13;31.55;;;18.50;99.90;;;;;;4966610;28;20051;-80
2021/06/07 05:52:25;;;;;;;41.42;32.97;;;18.50;99.90;;;;;;4965709;29;20059;-80
2021/06/07 05:55:08;;;;;;;42.25;33.63;;;18.50;99.90;;;;;;4966241;29;20114;-81
2021/06/07 05:57:40;;;;;;;39.40;31.67;;;18.50;99.90;;;;;;4959993;29;20051;-82
2021/06/07 06:00:11;;;;;;;39.45;32.45;;;18.60;99.90;;;;;;4946632;29;20063;-80
2021/06/07 06:02:37;;;;;;;43.17;33.15;;;18.70;99.90;;;;;;4947548;29;20051;-79
2021/06/07 06:05:04;;;;;;;44.35;34.38;;;18.80;99.90;;;;;;4942032;29;20098;-81
2021/06/07 06:07:32;;;;;;;43.03;34.13;;;18.80;99.90;;;;;;4948864;29;20052;-81
2021/06/07 06:10:00;;;;;;;45.22;35.25;;;18.90;99.90;;;;;;4946422;29;20111;-79
2021/06/07 06:12:27;;;;;;;46.33;34.92;;;18.90;99.90;;;;;;4945969;29;20056;-80
2021/06/07 06:15:09;;;;;;;49.05;37.17;;;19.00;99.90;;;;;;4945732;29;20118;-81
2021/06/07 06:17:36;;;;;;;47.47;38.22;;;19.00;99.90;;;;;;4937294;29;20090;-77
2021/06/07 06:20:24;;;;;;;53.97;38.00;;;19.10;99.90;;;;;;4940082;29;20056;-80
2021/06/07 06:23:18;;;;;;;52.30;39.95;;;19.20;99.90;;;;;;4940215;29;20071;-80
2021/06/07 06:26:14;;;;;;;49.95;39.80;;;19.20;99.90;;;;;;4940875;29;20048;-80
2021/06/07 06:28:59;;;;;;;52.40;41.15;;;19.20;99.90;;;;;;4940280;29;20063;-81
2021/06/07 06:32:27;;;;;;;59.35;42.50;;;19.20;99.90;;;;;;4940439;29;20052;-81
2021/06/07 06:35:10;;;;;;;55.47;42.20;;;19.20;99.90;;;;;;4854417;29;20136;-79
2021/06/07 06:37:46;;;;;;;53.50;38.40;;;19.10;99.90;;;;;;4936650;29;20525;-80
2021/06/07 06:43:34;;;;;;;57.13;41.15;;;19.00;99.90;;;;;;4886874;29;20052;-79
2021/06/07 06:46:25;;;;;;;59.13;41.72;;;18.80;99.90;;;;;;4937507;29;20087;-79
2021/06/07 06:49:15;;;;;;;61.35;41.58;;;18.70;99.90;;;;;;4937331;29;20054;-80
2021/06/07 06:52:34;;;;;;;60.28;42.25;;;18.80;99.90;;;;;;4935259;29;20099;-79
2021/06/07 06:55:54;;;;;;;63.15;42.15;;;18.70;99.90;;;;;;4903611;29;20059;-80
2021/06/07 06:59:14;;;;;;;61.17;42.58;;;18.70;99.90;;;;;;4938064;29;20054;-79
2021/06/07 07:01:41;;;;;;;61.13;43.20;;;18.70;99.90;;;;;;4900057;29;20059;-78
2021/06/07 07:04:08;;;;;;;62.30;42.28;;;18.80;99.90;;;;;;4897811;29;20067;-78
2021/06/07 07:12:48;;;;;;;60.35;40.92;;;18.70;99.90;;;;;;4941485;29;20541;-79
2021/06/07 07:15:18;;;;;;;52.65;38.30;;;18.70;99.90;;;;;;4940619;29;20058;-78
2021/06/07 07:17:47;;;;;;;57.72;38.40;;;18.70;99.90;;;;;;4941190;29;20059;-79
2021/06/07 07:20:17;;;;;;;56.88;38.78;;;18.70;99.90;;;;;;4954873;29;20048;-79
2021/06/07 07:25:43;;;;;;;56.50;39.28;;;18.70;99.90;;;;;;4962753;28;20063;-76
2021/06/07 07:28:11;;;;;;;51.53;39.42;;;18.70;99.90;;;;;;4958310;29;20054;-78
2021/06/07 07:30:52;;;;;;;53.35;37.80;;;18.60;99.90;;;;;;4957466;28;20138;-78
2021/06/07 07:33:19;;;;;;;52.85;38.85;;;18.60;99.90;;;;;;4959761;28;20062;-79
2021/06/07 07:35:49;;;;;;;53.85;38.25;;;18.70;99.90;;;;;;4961032;28;20054;-79
2021/06/07 07:38:15;;;;;;;51.85;37.72;;;18.70;99.90;;;;;;4959828;29;20055;-80
2021/06/07 07:40:42;;;;;;;50.47;37.65;;;18.80;99.90;;;;;;4960463;29;20106;-78
2021/06/07 07:43:12;;;;;;;45.55;37.33;;;18.90;99.90;;;;;;4959540;29;20051;-79
2021/06/07 07:45:40;;;;;;;45.03;36.72;;;19.10;99.90;;;;;;4962698;29;20110;-79
2021/06/07 07:48:08;;;;;;;50.30;38.65;;;19.20;99.90;;;;;;4965413;29;20444;-81
2021/06/07 07:50:36;;;;;;;43.28;35.20;;;19.30;99.90;;;;;;4961024;29;20054;-78
2021/06/07 07:53:03;;;;;;;43.75;37.15;;;19.50;99.90;;;;;;4960406;29;20464;-79
2021/06/07 07:55:32;;;;;;;49.08;38.92;;;19.60;99.90;;;;;;4960991;29;20621;-79
2021/06/07 07:58:00;;;;;;;44.72;38.63;;;19.70;99.90;;;;;;4948041;29;20556;-79
2021/06/07 08:00:29;;;;;;;48.85;41.58;;;19.90;99.90;;;;;;4939876;29;20055;-80
2021/06/07 08:02:58;;;;;;;48.85;40.03;;;20.10;99.90;;;;;;4940739;29;20047;-78
2021/06/07 08:05:29;;;;;;;48.03;39.78;;;20.20;99.90;;;;;;4941977;29;20111;-79
2021/06/07 08:07:56;;;;;;;44.53;38.20;;;20.20;99.90;;;;;;4967805;23;20051;-79
2021/06/07 08:10:22;;;;;;;44.78;37.45;;;20.30;99.90;;;;;;4952598;28;20070;-78
2021/06/07 08:12:49;;;;;;;45.72;37.00;;;20.30;99.90;;;;;;4955960;29;20087;-81
2021/06/07 08:15:15;;;;;;;42.63;36.95;;;20.30;99.90;;;;;;4956775;29;20114;-80
2021/06/07 08:17:43;;;;;;;44.22;36.70;;;20.30;99.90;;;;;;4957327;29;20074;-79
2021/06/07 08:20:14;;;;;;;42.17;35.72;;;20.20;99.90;;;;;;4958534;29;20083;-79
2021/06/07 08:22:40;;;;;;;43.67;36.80;;;20.10;99.90;;;;;;4954670;29;20062;-78
2021/06/07 08:25:08;;;;;;;39.30;33.90;;;20.10;99.90;;;;;;4954761;29;20138;-78
2021/06/07 08:27:34;;;;;;;45.58;36.10;;;20.10;99.90;;;;;;4955503;29;20062;-79
2021/06/07 08:30:01;;;;;;;41.60;35.85;;;20.20;99.90;;;;;;4953646;29;20149;-78
2021/06/07 08:32:27;;;;;;;41.63;36.60;;;20.30;99.90;;;;;;4954172;29;20139;-77
2021/06/07 08:34:55;;;;;;;42.78;37.33;;;20.40;99.90;;;;;;4954746;29;20142;-77
2021/06/07 08:37:21;;;;;;;43.28;36.92;;;20.30;99.90;;;;;;4954936;29;20138;-79
2021/06/07 08:39:47;;;;;;;45.95;39.42;;;20.30;99.90;;;;;;4953911;29;20526;-78
2021/06/07 08:42:15;;;;;;;47.08;37.58;;;20.40;99.90;;;;;;4954202;29;20047;-78
2021/06/07 08:44:41;;;;;;;44.25;37.75;;;20.60;99.90;;;;;;4954809;29;20111;-78
2021/06/07 08:47:08;;;;;;;47.17;38.42;;;20.50;99.90;;;;;;4955363;29;20106;-79
2021/06/07 08:49:35;;;;;;;45.33;37.92;;;20.80;99.90;;;;;;4957565;29;20082;-79
2021/06/07 08:52:03;;;;;;;39.88;35.50;;;20.80;99.90;;;;;;4960461;29;20138;-77
2021/06/07 08:54:30;;;;;;;43.75;36.00;;;21.00;99.90;;;;;;4960808;29;20130;-79
2021/06/07 08:56:57;;;;;;;42.55;36.75;;;21.20;99.90;;;;;;4959846;29;20059;-79
2021/06/07 08:59:23;;;;;;;43.17;36.75;;;21.40;99.90;;;;;;4954663;29;20079;-80
2021/06/07 09:01:51;;;;;;;44.05;37.63;;;21.60;99.90;;;;;;4953947;29;20122;-79
2021/06/07 09:04:19;;;;;;;43.30;36.72;;;21.80;99.90;;;;;;4955891;29;20158;-78
2021/06/07 09:06:48;;;;;;;43.03;38.40;;;21.90;99.90;;;;;;4954585;29;20138;-79
2021/06/07 09:09:18;;;;;;;40.58;36.15;;;22.10;99.90;;;;;;4953288;29;20051;-77
2021/06/07 09:11:47;;;;;;;42.33;37.72;;;22.00;99.90;;;;;;4953683;28;20046;-77
2021/06/07 09:14:19;;;;;;;47.05;41.80;;;22.10;99.90;;;;;;4956721;28;20055;-78
2021/06/07 09:16:48;;;;;;;43.33;38.40;;;22.20;99.90;;;;;;4965979;28;20086;-79
2021/06/07 09:19:23;;;;;;;44.28;38.83;;;22.10;99.90;;;;;;4963518;28;20102;-81
2021/06/07 09:21:50;;;;;;;45.55;40.72;;;22.10;99.90;;;;;;4964395;28;20137;-81
2021/06/07 09:24:18;;;;;;;45.08;40.20;;;22.10;99.90;;;;;;4957238;28;20555;-79
2021/06/07 09:26:46;;;;;;;47.72;40.53;;;22.20;99.90;;;;;;4963543;28;20137;-78
2021/06/07 09:29:32;;;;;;;44.95;40.17;;;22.10;99.90;;;;;;4961359;28;20125;-77
2021/06/07 09:32:00;;;;;;;46.08;38.83;;;22.00;99.90;;;;;;4958675;28;20092;-80
2021/06/07 09:34:29;;;;;;;45.70;39.05;;;22.00;99.90;;;;;;4962275;28;20051;-79
2021/06/07 09:37:05;;;;;;;40.00;35.72;;;22.00;99.90;;;;;;4960805;28;20153;-80
2021/06/07 09:39:32;;;;;;;40.20;35.90;;;21.80;99.90;;;;;;4960225;28;20158;-81
2021/06/07 09:42:00;;;;;;;39.33;35.00;;;21.80;99.90;;;;;;4953944;29;20133;-79
2021/06/07 09:44:31;;;;;;;38.00;33.88;;;21.90;99.90;;;;;;4954166;28;20051;-80
2021/06/07 09:47:19;;;;;;;36.45;30.65;;;21.90;99.90;;;;;;4955788;28;20129;-80
2021/06/07 09:49:49;;;;;;;34.63;30.85;;;22.00;99.90;;;;;;4953898;28;20134;-80
2021/06/07 09:52:19;;;;;;;29.33;26.15;;;22.10;99.90;;;;;;4953334;28;20089;-80
2021/06/07 09:55:00;;;;;;;29.20;25.75;;;22.10;99.90;;;;;;4952966;28;20055;-78
2021/06/07 09:57:46;;;;;;;31.85;28.17;;;22.30;99.90;;;;;;4953039;28;20074;-83
2021/06/07 10:00:30;;;;;;;31.27;27.92;;;22.50;99.90;;;;;;4965174;28;20075;-79
2021/06/07 10:02:57;;;;;;;34.00;30.52;;;22.50;99.90;;;;;;4975192;28;20145;-77
2021/06/07 10:05:33;;;;;;;34.03;30.42;;;22.70;99.90;;;;;;4973277;28;20515;-79
2021/06/07 10:07:59;;;;;;;36.10;31.35;;;22.70;99.90;;;;;;4969190;28;20058;-80
2021/06/07 10:10:27;;;;;;;32.58;29.17;;;22.60;99.90;;;;;;4951718;29;20145;-79
2021/06/07 10:13:04;;;;;;;33.28;29.02;;;22.50;99.90;;;;;;4952494;28;20134;-77
2021/06/07 10:15:34;;;;;;;38.30;33.33;;;22.40;99.90;;;;;;4955581;29;20105;-81
2021/06/07 10:18:00;;;;;;;38.80;33.63;;;22.20;99.90;;;;;;4959246;29;20051;-80
2021/06/07 10:23:11;;;;;;;35.83;31.95;;;21.80;99.90;;;;;;4958933;28;20086;-81
2021/06/07 10:25:39;;;;;;;34.25;30.25;;;22.00;99.90;;;;;;4980469;28;20134;-80
2021/06/07 10:28:06;;;;;;;34.03;30.27;;;22.20;99.90;;;;;;4979829;28;20082;-80
2021/06/07 10:30:39;;;;;;;34.50;30.55;;;22.10;99.90;;;;;;4980027;28;20138;-80
2021/06/07 10:33:31;;;;;;;32.83;29.35;;;22.20;99.90;;;;;;4977383;28;20195;-80
2021/06/07 10:36:18;;;;;;;;;;;22.40;99.90;;;;;;4980562;28;20123;-78
2021/06/07 10:38:44;;;;;;;34.10;28.15;;;22.60;99.90;;;;;;4983808;28;19971;-81
2021/06/07 10:41:20;;;;;;;31.00;27.70;;;23.00;99.90;;;;;;4962408;28;20107;-81
2021/06/07 10:43:49;;;;;;;30.58;27.23;;;23.30;99.90;;;;;;4959648;29;20079;-81
2021/06/07 10:46:23;;;;;;;30.30;26.27;;;23.50;99.90;;;;;;4961470;28;20138;-80
2021/06/07 10:48:51;;;;;;;29.80;25.65;;;23.40;99.90;;;;;;4958032;29;20134;-80
2021/06/07 10:51:19;;;;;;;31.13;27.83;;;23.30;99.90;;;;;;4960092;29;20059;-80
2021/06/07 10:53:46;;;;;;;31.10;27.38;;;23.10;99.90;;;;;;4968423;29;20123;-80
2021/06/07 10:56:14;;;;;;;34.53;30.77;;;22.90;99.90;;;;;;4962075;28;20059;-80
2021/06/07 10:58:53;;;;;;;34.58;30.85;;;22.70;99.90;;;;;;4962741;28;20093;-80
2021/06/07 11:01:20;;;;;;;34.40;30.80;;;22.40;99.90;;;;;;4961437;29;20051;-79
2021/06/07 11:03:57;;;;;;;34.17;30.45;;;22.30;99.90;;;;;;4960012;29;20142;-79
2021/06/07 11:06:23;;;;;;;36.70;32.33;;;22.10;99.90;;;;;;4962140;29;20116;-80
2021/06/07 11:09:05;;;;;;;36.80;32.83;;;22.00;99.90;;;;;;4962036;28;20134;-80
2021/06/07 11:11:50;;;;;;;43.28;35.33;;;21.70;99.90;;;;;;4962052;29;20514;-80
2021/06/07 11:14:18;;;;;;;40.47;36.00;;;21.60;99.90;;;;;;4962226;29;20051;-79
2021/06/07 11:16:46;;;;;;;42.35;36.72;;;21.50;99.90;;;;;;4962034;29;20055;-82
2021/06/07 11:19:14;;;;;;;43.20;36.85;;;21.50;99.90;;;;;;4960449;28;20117;-80
2021/06/07 11:21:45;;;;;;;42.20;37.60;;;21.40;99.90;;;;;;4959856;29;20070;-81
2021/06/07 11:24:26;;;;;;;43.90;37.45;;;21.40;99.90;;;;;;4964382;28;20074;-78
2021/06/07 11:26:56;;;;;;;51.25;38.70;;;21.30;99.90;;;;;;4963846;28;20145;-79
2021/06/07 11:29:24;;;;;;;46.03;36.17;;;21.40;99.90;;;;;;4960057;28;20055;-81
2021/06/07 11:31:53;;;;;;;41.00;34.38;;;21.40;99.90;;;;;;4958423;28;20554;-78
2021/06/07 11:34:45;;;;;;;40.58;34.40;;;21.40;99.90;;;;;;4957364;29;20524;-79
2021/06/07 11:37:13;;;;;;;37.05;32.85;;;21.30;99.90;;;;;;4961578;29;20134;-79
2021/06/07 11:39:54;;;;;;;38.15;33.42;;;21.30;99.90;;;;;;4961078;29;20111;-80
2021/06/07 11:42:24;;;;;;;34.60;31.05;;;21.20;99.90;;;;;;4951982;28;20082;-80
2021/06/07 11:44:56;;;;;;;36.30;31.27;;;21.20;99.90;;;;;;4964691;28;20046;-80
2021/06/07 11:47:25;;;;;;;34.60;29.73;;;21.20;99.90;;;;;;4962688;28;20051;-80
2021/06/07 11:50:12;;;;;;;32.25;28.95;;;21.00;99.90;;;;;;4960120;29;20078;-79
2021/06/07 11:52:53;;;;;;;31.27;27.98;;;21.10;99.90;;;;;;4949634;29;20130;-80
2021/06/07 11:55:31;;;;;;;33.65;28.33;;;21.00;99.90;;;;;;4961730;29;20085;-80
2021/06/07 11:58:09;;;;;;;30.50;27.45;;;20.90;99.90;;;;;;4959658;28;20110;-80
2021/06/07 12:00:40;;;;;;;32.20;26.42;;;20.90;99.90;;;;;;4958160;29;20131;-80
2021/06/07 12:03:09;;;;;;;30.45;26.88;;;21.00;99.90;;;;;;4949057;29;20055;-80
2021/06/07 12:05:35;;;;;;;28.55;25.55;;;21.00;99.90;;;;;;4961139;29;20055;-80
2021/06/07 12:08:07;;;;;;;28.10;25.23;;;20.90;99.90;;;;;;4960105;28;20051;-80
2021/06/07 12:10:34;;;;;;;27.42;24.58;;;21.00;99.90;;;;;;4961434;28;20377;-80
2021/06/07 12:13:31;;;;;;;27.40;24.83;;;21.00;99.90;;;;;;4959878;28;20088;-80
2021/06/07 12:16:02;;;;;;;27.70;24.90;;;21.00;99.90;;;;;;4881724;29;20089;-80
2021/06/07 12:18:34;;;;;;;25.98;23.23;;;21.00;99.90;;;;;;4948325;29;20051;-80
2021/06/07 12:21:02;;;;;;;24.48;21.98;;;20.90;99.90;;;;;;4963643;28;20074;-79
2021/06/07 12:23:33;;;;;;;23.25;20.67;;;20.90;99.90;;;;;;4956895;28;20132;-79
2021/06/07 12:28:59;;;;;;;22.60;20.40;;;20.90;99.90;;;;;;4954995;29;20090;-78
2021/06/07 12:31:27;;;;;;;21.55;19.55;;;20.90;99.90;;;;;;4954334;29;20579;-80
2021/06/07 12:33:53;;;;;;;22.50;20.30;;;20.90;99.90;;;;;;4956620;29;20134;-80
2021/06/07 12:36:20;;;;;;;21.88;19.77;;;20.90;99.90;;;;;;4957148;29;20137;-80
2021/06/07 12:38:47;;;;;;;22.15;20.02;;;21.00;99.90;;;;;;4958093;29;20062;-80
2021/06/07 12:41:14;;;;;;;22.13;19.75;;;21.10;99.90;;;;;;4959663;29;20047;-79
2021/06/07 12:43:42;;;;;;;21.10;19.10;;;21.00;99.90;;;;;;4960852;29;20055;-81
2021/06/07 12:46:10;;;;;;;20.73;18.65;;;21.00;99.90;;;;;;4961266;29;20174;-80
2021/06/07 12:48:43;;;;;;;20.55;18.65;;;21.00;99.90;;;;;;4960984;29;20563;-81
2021/06/07 12:51:11;;;;;;;20.55;16.67;;;21.20;99.90;;;;;;4964166;29;20118;-81
2021/06/07 12:53:40;;;;;;;17.38;15.68;;;21.30;99.90;;;;;;4963271;29;20055;-80
2021/06/07 12:56:13;;;;;;;15.93;14.52;;;21.20;99.90;;;;;;4961563;28;20051;-80
2021/06/07 12:58:46;;;;;;;16.30;14.80;;;21.10;99.90;;;;;;4968857;29;20071;-84
2021/06/07 13:01:16;;;;;;;16.45;14.60;;;21.00;99.90;;;;;;4961437;29;20308;-80
2021/06/07 13:03:52;;;;;;;16.52;14.93;;;21.10;99.90;;;;;;4963070;29;20464;-81
2021/06/07 13:06:19;;;;;;;16.52;14.93;;;21.30;99.90;;;;;;4962587;29;20051;-80
2021/06/07 13:08:57;;;;;;;17.27;15.43;;;21.50;99.90;;;;;;4963258;29;20048;-80